createdAt,value
2023-01-21T00:01:51.223Z,22.95
2023-01-21T00:04:19.565Z,22.40
2023-01-21T00:06:47.804Z,22.70
2023-01-21T00:09:15.779Z,21.98
2023-01-21T00:11:43.843Z,23.30
2023-01-21T00:14:15.492Z,23.67
2023-01-21T00:16:45.452Z,23.92
2023-01-21T00:19:13.528Z,25.20
2023-01-21T00:21:41.531Z,26.05
2023-01-21T00:24:09.695Z,24.60
2023-01-21T00:26:37.898Z,25.42
2023-01-21T00:29:05.904Z,24.95
2023-01-21T00:31:35.660Z,24.70
2023-01-21T00:34:04.000Z,26.25
2023-01-21T00:36:32.149Z,26.17
2023-01-21T00:39:00.373Z,25.80
2023-01-21T00:41:28.482Z,27.13
2023-01-21T00:43:56.721Z,26.00
2023-01-21T00:46:25.002Z,26.17
2023-01-21T00:48:56.046Z,28.20
2023-01-21T00:51:24.042Z,26.75
2023-01-21T00:53:51.881Z,27.00
2023-01-21T00:56:22.803Z,26.83
2023-01-21T00:58:50.991Z,27.55
2023-01-21T01:01:20.844Z,26.88
2023-01-21T01:03:50.420Z,27.73
2023-01-21T01:06:21.362Z,27.42
2023-01-21T01:08:51.910Z,26.90
2023-01-21T01:11:21.616Z,27.00
2023-01-21T01:13:49.558Z,27.25
2023-01-21T01:16:17.938Z,28.38
2023-01-21T01:18:46.245Z,26.63
2023-01-21T01:21:15.971Z,25.70
2023-01-21T01:23:48.122Z,27.55
2023-01-21T01:26:18.189Z,26.88
2023-01-21T01:28:46.576Z,28.55
2023-01-21T01:31:16.618Z,28.10
2023-01-21T01:33:44.796Z,26.45
2023-01-21T01:36:15.273Z,26.58
2023-01-21T01:38:43.625Z,27.27
2023-01-21T01:41:21.146Z,27.45
2023-01-21T01:43:58.858Z,26.40
2023-01-21T01:46:27.999Z,26.58
2023-01-21T01:49:00.416Z,26.60
2023-01-21T01:51:34.681Z,27.33
2023-01-21T01:54:03.038Z,27.48
2023-01-21T01:56:32.704Z,27.73
2023-01-21T01:59:00.852Z,27.35
2023-01-21T02:01:29.097Z,27.63
2023-01-21T02:04:00.903Z,27.58
2023-01-21T02:06:29.214Z,28.30
2023-01-21T02:09:00.300Z,28.52
2023-01-21T02:11:28.250Z,28.05
2023-01-21T02:13:59.801Z,27.50
2023-01-21T02:17:03.460Z,27.75
2023-01-21T02:19:51.129Z,29.77
2023-01-21T02:22:27.116Z,29.15
2023-01-21T02:25:38.233Z,30.05
2023-01-21T02:28:45.236Z,27.38
2023-01-21T02:31:47.190Z,28.20
2023-01-21T02:34:29.669Z,27.95
2023-01-21T02:37:07.007Z,28.40
2023-01-21T02:39:55.455Z,28.45
2023-01-21T02:42:27.416Z,28.60
2023-01-21T02:45:01.861Z,29.98
2023-01-21T02:47:35.903Z,31.35
2023-01-21T02:50:08.481Z,30.08
2023-01-21T02:52:39.033Z,31.00
2023-01-21T02:55:11.053Z,30.43
2023-01-21T02:57:43.914Z,30.30
2023-01-21T03:00:16.738Z,30.08
2023-01-21T03:02:59.146Z,29.17
2023-01-21T03:05:36.335Z,30.67
2023-01-21T03:08:08.510Z,30.80
2023-01-21T03:10:40.610Z,30.13
2023-01-21T03:13:14.469Z,30.20
2023-01-21T03:16:03.797Z,29.50
2023-01-21T03:18:36.445Z,30.75
2023-01-21T03:21:08.326Z,27.65
2023-01-21T03:23:39.320Z,30.45
2023-01-21T03:26:09.296Z,28.83
2023-01-21T03:28:42.972Z,28.33
2023-01-21T03:31:14.050Z,29.42
2023-01-21T03:33:46.775Z,28.75
2023-01-21T03:36:23.128Z,30.02
2023-01-21T03:38:53.147Z,29.00
2023-01-21T03:41:24.546Z,28.83
2023-01-21T03:43:53.392Z,27.90
2023-01-21T03:46:25.485Z,27.27
2023-01-21T03:48:57.200Z,27.58
2023-01-21T03:51:30.734Z,27.60
2023-01-21T03:54:00.298Z,27.13
2023-01-21T03:56:28.690Z,26.73
2023-01-21T03:58:56.671Z,27.08
2023-01-21T04:01:24.776Z,26.77
2023-01-21T04:03:52.898Z,27.05
2023-01-21T04:06:22.889Z,26.85
2023-01-21T04:08:52.089Z,27.45
2023-01-21T04:11:19.853Z,28.00
2023-01-21T04:13:48.054Z,26.83
2023-01-21T04:16:15.903Z,28.63
2023-01-21T04:18:44.039Z,28.60
2023-01-21T04:21:12.320Z,28.92
2023-01-21T04:23:39.993Z,28.92
2023-01-21T04:26:09.480Z,28.67
2023-01-21T04:28:37.452Z,28.35
2023-01-21T04:31:05.583Z,28.02
2023-01-21T04:33:33.688Z,28.40
2023-01-21T04:36:02.396Z,29.52
2023-01-21T04:38:30.383Z,27.38
2023-01-21T04:40:58.372Z,28.85
2023-01-21T04:43:27.942Z,30.20
2023-01-21T04:45:56.194Z,29.50
2023-01-21T04:48:24.408Z,29.48
2023-01-21T04:50:52.402Z,31.60
2023-01-21T04:53:21.903Z,30.13
2023-01-21T04:55:52.555Z,32.35
2023-01-21T04:58:31.102Z,31.55
2023-01-21T05:01:00.688Z,30.58
2023-01-21T05:03:29.033Z,31.50
2023-01-21T05:05:57.111Z,30.15
2023-01-21T05:08:25.304Z,32.72
2023-01-21T05:10:55.856Z,33.20
2023-01-21T05:13:26.398Z,31.88
2023-01-21T05:15:54.953Z,33.85
2023-01-21T05:18:24.298Z,30.50
2023-01-21T05:20:52.261Z,31.63
2023-01-21T05:23:22.581Z,33.67
2023-01-21T05:25:50.646Z,30.53
2023-01-21T05:28:18.898Z,32.40
2023-01-21T05:30:46.794Z,32.65
2023-01-21T05:33:14.782Z,31.33
2023-01-21T05:35:44.120Z,31.13
2023-01-21T05:38:12.386Z,31.70
2023-01-21T05:40:40.148Z,32.30
2023-01-21T05:43:07.957Z,32.25
2023-01-21T05:45:35.961Z,32.10
2023-01-21T05:48:05.769Z,32.95
2023-01-21T05:50:33.689Z,32.07
2023-01-21T05:53:03.023Z,30.40
2023-01-21T05:55:31.274Z,30.57
2023-01-21T05:57:59.404Z,31.00
2023-01-21T06:00:27.886Z,30.30
2023-01-21T06:02:58.574Z,32.05
2023-01-21T06:05:26.535Z,32.35
2023-01-21T06:07:54.497Z,31.48
2023-01-21T06:10:26.843Z,32.03
2023-01-21T06:12:55.112Z,34.17
2023-01-21T06:15:24.332Z,31.55
2023-01-21T06:17:52.322Z,32.17
2023-01-21T06:20:23.406Z,31.83
2023-01-21T06:22:51.868Z,31.93
2023-01-21T06:25:20.102Z,31.75
2023-01-21T06:27:49.813Z,31.50
2023-01-21T06:30:18.445Z,30.47
2023-01-21T06:32:46.751Z,31.52
2023-01-21T06:35:14.910Z,31.20
2023-01-21T06:37:43.169Z,31.42
2023-01-21T06:40:12.259Z,30.75
2023-01-21T06:42:40.207Z,31.02
2023-01-21T06:45:10.707Z,29.70
2023-01-21T06:47:41.502Z,30.40
2023-01-21T06:50:11.243Z,30.30
2023-01-21T06:52:39.387Z,30.13
2023-01-21T06:55:08.049Z,29.67
